Time;durP1;ratioP1;P1;durP2;ratioP2;P2;SDS_P1;SDS_P2;PMS_P1;PMS_P2;Temp;Humidity;BMP_temperature;BMP_pressure;BME280_temperature;BME280_humidity;BME280_pressure;Samples;Min_cycle;Max_cycle;Signal;HPM_P1;HPM_P2
2021/12/11 00:01:19;;;;;;;;;;;1.50;99.90;;;;;;6104613;23;19921;-86
2021/12/11 00:03:51;;;;;;;;;;;1.50;99.90;;;;;;6096542;23;20276;-86
2021/12/11 00:06:22;;;;;;;;;;;1.50;99.90;;;;;;6043702;23;19925;-85
2021/12/11 00:08:53;;;;;;;;;;;1.40;99.90;;;;;;6021894;23;19921;-86
2021/12/11 00:11:32;;;;;;;;;;;1.40;99.90;;;;;;6020563;23;19925;-85
2021/12/11 00:14:02;;;;;;;;;;;1.40;99.90;;;;;;6057876;23;19923;-85
2021/12/11 00:16:31;;;;;;;;;;;1.50;99.90;;;;;;6107864;23;20343;-85
2021/12/11 00:19:03;;;;;;;;;;;1.50;99.90;;;;;;6050067;23;19921;-87
2021/12/11 00:21:31;;;;;;;;;;;1.50;99.90;;;;;;6107335;23;20333;-88
2021/12/11 00:24:05;;;;;;;;;;;1.50;99.90;;;;;;6050264;23;19927;-86
2021/12/11 00:26:38;;;;;;;;;;;1.60;99.90;;;;;;6104657;23;19920;-86
2021/12/11 00:29:06;;;;;;;;;;;1.60;99.90;;;;;;6107162;23;19921;-86
2021/12/11 00:31:35;;;;;;;;;;;1.60;99.90;;;;;;6101022;23;19924;-87
2021/12/11 00:34:04;;;;;;;;;;;1.50;99.90;;;;;;6051817;23;19917;-88
2021/12/11 00:36:32;;;;;;;;;;;1.50;99.90;;;;;;6135683;23;19944;-88
2021/12/11 00:39:01;;;;;;;;;;;1.50;99.90;;;;;;6075008;23;19928;-87
2021/12/11 00:41:32;;;;;;;;;;;1.40;99.90;;;;;;6099652;23;19917;-87
2021/12/11 00:44:01;;;;;;;;;;;1.50;99.90;;;;;;6073602;23;19921;-87
2021/12/11 00:46:29;;;;;;;;;;;1.50;99.90;;;;;;6106919;23;19921;-87
2021/12/11 00:49:09;;;;;;;;;;;1.50;99.90;;;;;;6109020;23;19928;-87
2021/12/11 00:51:37;;;;;;;;;;;1.40;99.90;;;;;;6050853;23;19916;-87
2021/12/11 00:54:05;;;;;;;;;;;1.40;99.90;;;;;;6073292;23;19928;-86
2021/12/11 00:56:34;;;;;;;;;;;1.50;99.90;;;;;;6135288;23;19927;-86
2021/12/11 00:59:04;;;;;;;;;;;1.50;99.90;;;;;;6073189;23;19929;-87
2021/12/11 01:01:33;;;;;;;;;;;1.40;99.90;;;;;;6075439;23;20304;-85
2021/12/11 01:04:07;;;;;;;;;;;1.40;99.90;;;;;;6076853;23;19924;-86
2021/12/11 01:06:41;;;;;;;;;;;1.50;99.90;;;;;;6082135;23;20248;-86
2021/12/11 01:09:12;;;;;;;;;;;1.50;99.90;;;;;;6075199;23;19921;-85
2021/12/11 01:12:07;;;;;;;;;;;1.50;99.90;;;;;;6073493;23;19928;-86
2021/12/11 01:14:52;;;;;;;;;;;1.50;99.90;;;;;;6050845;23;19921;-86
2021/12/11 01:17:38;;;;;;;;;;;1.40;99.90;;;;;;6098700;23;19916;-86
2021/12/11 01:20:09;;;;;;;;;;;1.40;99.90;;;;;;6098622;23;19924;-86
2021/12/11 01:22:37;;;;;;;;;;;1.50;99.90;;;;;;6097952;23;19921;-87
2021/12/11 01:25:09;;;;;;;;;;;1.40;99.90;;;;;;6052180;23;20237;-86
2021/12/11 01:27:45;;;;;;;;;;;1.40;99.90;;;;;;6097363;23;19916;-86
2021/12/11 01:30:15;;;;;;;;;;;1.50;99.90;;;;;;6107509;23;19920;-86
2021/12/11 01:32:43;;;;;;;;;;;1.40;99.90;;;;;;6075001;23;19921;-86
2021/12/11 01:35:14;;;;;;;;;;;1.50;99.90;;;;;;6129421;23;19920;-86
2021/12/11 01:37:41;;;;;;;;;;;1.40;99.90;;;;;;6074978;23;20347;-87
2021/12/11 01:40:11;;;;;;;;;;;1.40;99.90;;;;;;6097294;23;20517;-87
2021/12/11 01:42:39;;;;;;;;;;;1.40;99.90;;;;;;6073204;23;19924;-87
2021/12/11 01:45:09;;;;;;;;;;;1.40;99.90;;;;;;6074714;23;20337;-87
2021/12/11 01:47:37;;;;;;;;;;;1.40;99.90;;;;;;6074182;23;19927;-86
2021/12/11 01:50:13;;;;;;;;;;;1.40;99.90;;;;;;6107404;23;19927;-86
2021/12/11 01:52:44;;;;;;;;;;;1.40;99.90;;;;;;6074321;23;19920;-87
2021/12/11 01:55:18;;;;;;;;;;;1.40;99.90;;;;;;6098345;23;19921;-87
2021/12/11 01:57:51;;;;;;;;;;;1.40;99.90;;;;;;6075016;23;19921;-87
2021/12/11 02:00:31;;;;;;;;;;;1.40;99.90;;;;;;6074451;23;19924;-86
2021/12/11 02:03:00;;;;;;;;;;;1.40;99.90;;;;;;6074420;23;19939;-86
2021/12/11 02:05:30;;;;;;;;;;;1.40;99.90;;;;;;6098228;23;19924;-86
2021/12/11 02:08:02;;;;;;;;;;;1.40;99.90;;;;;;6073119;23;19917;-87
2021/12/11 02:10:41;;;;;;;;;;;1.40;99.90;;;;;;6073601;23;19920;-87
2021/12/11 02:13:11;;;;;;;;;;;1.40;99.90;;;;;;6097580;23;19932;-86
2021/12/11 02:15:46;;;;;;;;;;;1.40;99.90;;;;;;6126495;23;19920;-88
2021/12/11 02:18:21;;;;;;;;;;;1.50;99.90;;;;;;6074427;23;19932;-87
2021/12/11 02:20:52;;;;;;;;;;;1.40;99.90;;;;;;6074689;23;19916;-87
2021/12/11 02:23:20;;;;;;;;;;;1.40;99.90;;;;;;6097524;23;19916;-87
2021/12/11 02:25:49;;;;;;;;;;;1.40;99.90;;;;;;6074093;23;19923;-87
2021/12/11 02:28:24;;;;;;;;;;;1.40;99.90;;;;;;6072990;23;19917;-87
2021/12/11 02:31:04;;;;;;;;;;;1.40;99.90;;;;;;6128476;23;19925;-87
2021/12/11 02:33:36;;;;;;;;;;;1.40;99.90;;;;;;6074177;23;19917;-86
2021/12/11 02:36:11;;;;;;;;;;;1.40;99.90;;;;;;6098455;23;19932;-87
2021/12/11 02:38:43;;;;;;;;;;;1.50;99.90;;;;;;6104944;23;19923;-86
2021/12/11 02:41:19;;;;;;;;;;;1.40;99.90;;;;;;6074487;23;19920;-87
2021/12/11 02:43:54;;;;;;;;;;;1.50;99.90;;;;;;6073377;23;19924;-87
2021/12/11 02:46:30;;;;;;;;;;;1.40;99.90;;;;;;6074185;23;19916;-87
2021/12/11 02:49:04;;;;;;;;;;;1.40;99.90;;;;;;6133963;23;19927;-87
2021/12/11 02:51:57;;;;;;;;;;;1.40;99.90;;;;;;6126289;23;19921;-88
2021/12/11 02:55:03;;;;;;;;;;;1.40;99.90;;;;;;6129905;23;19920;-87
2021/12/11 02:58:15;;;;;;;;;;;1.40;99.90;;;;;;6093823;23;19924;-86
2021/12/11 03:01:19;;;;;;;;;;;1.40;99.90;;;;;;6079452;23;19921;-87
2021/12/11 03:03:57;;;;;;;;;;;1.40;99.90;;;;;;6100043;23;19920;-86
2021/12/11 03:06:27;;;;;;;;;;;1.40;99.90;;;;;;6121910;23;20533;-87
2021/12/11 03:08:57;;;;;;;;;;;1.40;99.90;;;;;;6134066;23;19917;-87
2021/12/11 03:11:29;;;;;;;;;;;1.60;99.90;;;;;;6097340;23;19948;-88
2021/12/11 03:13:58;;;;;;;;;;;1.50;99.90;;;;;;6102061;23;19928;-86
2021/12/11 03:16:27;;;;;;;;;;;1.40;99.90;;;;;;6108051;23;20325;-87
2021/12/11 03:18:56;;;;;;;;;;;1.50;99.90;;;;;;6073207;23;20363;-87
2021/12/11 03:21:37;;;;;;;;;;;1.50;99.90;;;;;;6107775;23;20317;-87
2021/12/11 03:24:53;;;;;;;;;;;1.40;99.90;;;;;;6051612;23;20594;-87
2021/12/11 03:27:35;;;;;;;;;;;1.40;99.90;;;;;;6072897;23;19917;-87
2021/12/11 03:30:06;;;;;;;;;;;1.40;99.90;;;;;;6073507;23;19921;-87
2021/12/11 03:32:34;;;;;;;;;;;1.40;99.90;;;;;;6107411;23;19916;-87
2021/12/11 03:35:03;;;;;;;;;;;1.40;99.90;;;;;;6097427;23;20356;-87
2021/12/11 03:37:31;;;;;;;;;;;1.40;99.90;;;;;;6107920;23;19917;-82
2021/12/11 03:39:58;;;;;;;;;;;1.40;99.90;;;;;;6097030;23;19927;-82
2021/12/11 03:42:29;;;;;;;;;;;1.40;99.90;;;;;;6049112;23;19921;-82
2021/12/11 03:44:58;;;;;;;;;;;1.40;99.90;;;;;;6097193;23;19927;-82
2021/12/11 03:47:30;;;;;;;;;;;1.30;99.90;;;;;;6125559;23;19920;-82
2021/12/11 03:50:03;;;;;;;;;;;1.40;99.90;;;;;;6097063;23;20351;-81
2021/12/11 03:52:31;;;;;;;;;;;1.50;99.90;;;;;;6134220;23;19920;-80
2021/12/11 03:54:58;;;;;;;;;;;1.50;99.90;;;;;;6097322;23;19916;-81
2021/12/11 03:57:29;;;;;;;;;;;1.60;99.90;;;;;;6132706;23;19921;-81
2021/12/11 03:59:57;;;;;;;;;;;1.50;99.90;;;;;;6112604;23;19917;-82
2021/12/11 04:02:27;;;;;;;;;;;1.50;99.90;;;;;;6129381;23;19916;-81
2021/12/11 04:04:57;;;;;;;;;;;1.50;99.90;;;;;;6133508;23;20221;-82
2021/12/11 04:07:29;;;;;;;;;;;1.50;99.90;;;;;;6128206;23;19924;-81
2021/12/11 04:09:57;;;;;;;;;;;1.50;99.90;;;;;;6134402;23;19920;-80
2021/12/11 04:12:25;;;;;;;;;;;1.40;99.90;;;;;;6134845;23;19951;-80
2021/12/11 04:14:54;;;;;;;;;;;1.50;99.90;;;;;;6100654;23;19927;-81
2021/12/11 04:17:23;;;;;;;;;;;1.40;99.90;;;;;;6135634;23;19917;-82
2021/12/11 04:19:54;;;;;;;;;;;1.40;99.90;;;;;;6075176;23;19947;-82
2021/12/11 04:22:24;;;;;;;;;;;1.30;99.90;;;;;;6132638;23;19924;-82
2021/12/11 04:24:53;;;;;;;;;;;1.30;99.90;;;;;;6109573;23;19921;-82
2021/12/11 04:27:24;;;;;;;;;;;1.30;99.90;;;;;;6098299;23;19949;-81
2021/12/11 04:29:52;;;;;;;;;;;1.30;99.90;;;;;;6135559;23;19928;-82
2021/12/11 04:32:21;;;;;;;;;;;1.20;99.90;;;;;;6098651;23;20339;-83
2021/12/11 04:34:50;;;;;;;;;;;1.20;99.90;;;;;;6074716;23;19921;-81
2021/12/11 04:37:23;;;;;;;;;;;1.10;99.90;;;;;;6123883;23;19928;-82
2021/12/11 04:39:57;;;;;;;;;;;1.20;99.90;;;;;;6101484;23;19917;-81
2021/12/11 04:45:14;;;;;;;;;;;1.10;99.90;;;;;;6135324;23;20023;-81
2021/12/11 04:50:49;;;;;;;;;;;1.00;99.90;;;;;;6065991;23;20339;-81
2021/12/11 05:09:24;;;;;;;;;;;1.00;99.90;;;;;;6108866;23;19917;-81
2021/12/11 05:12:13;;;;;;;;;;;0.90;99.90;;;;;;6124639;23;19921;-81
2021/12/11 05:14:41;;;;;;;;;;;0.90;99.90;;;;;;6124925;23;20257;-81
2021/12/11 05:17:09;;;;;;;;;;;1.00;99.90;;;;;;6133392;23;19916;-80
2021/12/11 05:19:37;;;;;;;;;;;0.90;99.90;;;;;;6074896;23;20287;-80
2021/12/11 05:22:06;;;;;;;;;;;0.90;99.90;;;;;;6107137;23;19921;-79
2021/12/11 05:24:39;;;;;;;;;;;1.00;99.90;;;;;;6124984;23;19928;-80
2021/12/11 05:27:07;;;;;;;;;;;0.90;99.90;;;;;;6126726;23;19924;-80
2021/12/11 05:29:34;;;;;;;;;;;1.00;99.90;;;;;;6108922;23;20264;-80
2021/12/11 05:32:03;;;;;;;;;;;0.90;99.90;;;;;;6124012;23;20276;-81
2021/12/11 05:34:31;;;;;;;;;;;1.00;99.90;;;;;;6106471;23;19917;-81
2021/12/11 05:36:58;;;;;;;;;;;0.90;99.90;;;;;;6075109;23;20332;-81
2021/12/11 05:39:26;;;;;;;;;;;0.90;99.90;;;;;;6126041;23;19921;-80
2021/12/11 05:41:53;;;;;;;;;;;0.90;99.90;;;;;;6122934;23;19931;-81
2021/12/11 05:44:22;;;;;;;;;;;0.90;99.90;;;;;;6124160;23;19921;-80
2021/12/11 05:46:50;;;;;;;;;;;0.90;99.90;;;;;;6128914;23;19917;-80
2021/12/11 05:49:18;;;;;;;;;;;1.00;99.90;;;;;;6134768;23;19917;-81
2021/12/11 05:51:47;;;;;;;;;;;1.00;99.90;;;;;;6100534;23;19921;-80
2021/12/11 05:54:16;;;;;;;;;;;1.00;99.90;;;;;;6131951;23;19924;-81
2021/12/11 05:56:45;;;;;;;;;;;1.00;99.90;;;;;;6134533;23;19921;-85
2021/12/11 05:59:16;;;;;;;;;;;1.00;99.90;;;;;;6128368;23;19927;-86
2021/12/11 06:01:45;;;;;;;;;;;1.00;99.90;;;;;;6132877;23;19921;-81
2021/12/11 06:04:26;;;;;;;;;;;1.00;99.90;;;;;;6123407;23;19924;-81
2021/12/11 06:06:54;;;;;;;;;;;1.00;99.90;;;;;;6097701;23;19921;-82
2021/12/11 06:09:24;;;;;;;;;;;1.00;99.90;;;;;;6098664;23;20443;-81
2021/12/11 06:12:00;;;;;;;;;;;0.90;99.90;;;;;;6074864;23;19924;-81
2021/12/11 06:14:28;;;;;;;;;;;0.90;99.90;;;;;;6074435;23;19924;-81
2021/12/11 06:16:59;;;;;;;;;;;1.00;99.90;;;;;;6074356;23;19917;-81
2021/12/11 06:19:28;;;;;;;;;;;1.00;99.90;;;;;;6073817;23;19928;-82
2021/12/11 06:21:57;;;;;;;;;;;0.90;99.90;;;;;;6133964;23;19921;-82
2021/12/11 06:24:25;;;;;;;;;;;1.00;99.90;;;;;;6121719;23;19921;-82
2021/12/11 06:26:54;;;;;;;;;;;1.00;99.90;;;;;;6073508;23;19921;-82
2021/12/11 06:29:23;;;;;;;;;;;1.00;99.90;;;;;;6073744;23;19917;-81
2021/12/11 06:31:52;;;;;;;;;;;1.00;99.90;;;;;;6073249;23;19920;-81
2021/12/11 06:34:20;;;;;;;;;;;1.00;99.90;;;;;;6097013;23;20356;-81
2021/12/11 06:36:48;;;;;;;;;;;1.00;99.90;;;;;;6074623;23;19923;-82
2021/12/11 06:39:18;;;;;;;;;;;1.00;99.90;;;;;;6049979;23;19920;-82
2021/12/11 06:41:49;;;;;;;;;;;1.10;99.90;;;;;;6097862;23;19925;-82
2021/12/11 06:44:17;;;;;;;;;;;1.00;99.90;;;;;;6072688;23;19923;-82
2021/12/11 06:46:44;;;;;;;;;;;1.00;99.90;;;;;;6073388;23;19927;-82
2021/12/11 06:49:13;;;;;;;;;;;1.00;99.90;;;;;;6122849;23;19917;-83
2021/12/11 06:51:43;;;;;;;;;;;1.00;99.90;;;;;;6073353;23;20483;-82
2021/12/11 06:54:18;;;;;;;;;;;1.00;99.90;;;;;;6049569;23;19918;-81
2021/12/11 06:57:26;;;;;;;;;;;1.10;99.90;;;;;;6074872;23;19920;-82
2021/12/11 07:00:04;;;;;;;;;;;1.10;99.90;;;;;;6082203;23;20258;-83
2021/12/11 07:02:32;;;;;;;;;;;1.10;99.90;;;;;;6097807;23;19937;-83
2021/12/11 07:05:00;;;;;;;;;;;1.10;99.90;;;;;;6050530;23;19921;-83
2021/12/11 07:07:35;;;;;;;;;;;1.10;99.90;;;;;;6074119;23;20305;-83
2021/12/11 07:10:05;;;;;;;;;;;1.10;99.90;;;;;;6049829;23;20272;-83
2021/12/11 07:12:33;;;;;;;;;;;1.10;99.90;;;;;;6074665;23;19917;-83
2021/12/11 07:15:08;;;;;;;;;;;1.10;99.90;;;;;;6073705;23;19921;-83
2021/12/11 07:17:35;;;;;;;;;;;1.10;99.90;;;;;;6107934;23;19917;-83
2021/12/11 07:20:04;;;;;;;;;;;1.10;99.90;;;;;;6049672;23;19921;-83
2021/12/11 07:22:32;;;;;;;;;;;1.10;99.90;;;;;;6105030;23;20243;-83
2021/12/11 07:25:05;;;;;;;;;;;1.20;99.90;;;;;;6108525;23;19917;-83
2021/12/11 07:27:34;;;;;;;;;;;1.20;99.90;;;;;;6100813;23;20316;-83
2021/12/11 07:30:02;;;;;;;;;;;1.20;99.90;;;;;;6083069;23;19928;-83
2021/12/11 07:32:33;;;;;;;;;;;1.20;99.90;;;;;;6074728;23;19920;-84
2021/12/11 07:35:09;;;;;;;;;;;1.20;99.90;;;;;;6074400;23;19924;-83
2021/12/11 07:37:49;;;;;;;;;;;1.30;99.90;;;;;;6098081;23;19927;-84
2021/12/11 07:40:25;;;;;;;;;;;1.20;99.90;;;;;;6071820;23;19919;-83
2021/12/11 07:43:06;;;;;;;;;;;1.20;99.90;;;;;;6070848;23;20112;-83
2021/12/11 07:45:42;;;;;;;;;;;1.20;99.90;;;;;;6084822;23;19931;-83
2021/12/11 07:48:15;;;;;;;;;;;1.30;99.90;;;;;;6096760;23;19916;-83
2021/12/11 07:50:48;;;;;;;;;;;1.20;99.90;;;;;;6073021;23;20241;-83
2021/12/11 07:53:34;;;;;;;;;;;1.20;99.90;;;;;;6076474;23;19917;-83
2021/12/11 07:56:05;;;;;;;;;;;1.20;99.90;;;;;;6109260;23;19924;-84
2021/12/11 07:59:15;;;;;;;;;;;1.30;99.90;;;;;;6071483;23;19917;-83
2021/12/11 08:01:57;;;;;;;;;;;1.30;99.90;;;;;;6072006;23;19916;-84
2021/12/11 08:04:38;;;;;;;;;;;1.30;99.90;;;;;;6068815;23;20368;-84
2021/12/11 08:07:12;;;;;;;;;;;1.30;99.90;;;;;;6056923;23;19932;-84
2021/12/11 08:10:08;;;;;;;;;;;1.30;99.90;;;;;;6094002;23;19921;-83
2021/12/11 08:12:54;;;;;;;;;;;1.40;99.90;;;;;;6078528;23;19937;-84
2021/12/11 08:15:22;;;;;;;;;;;1.40;99.90;;;;;;6071045;23;19921;-83
2021/12/11 08:18:00;;;;;;;;;;;1.40;99.90;;;;;;6082713;23;19944;-84
2021/12/11 08:20:40;;;;;;;;;;;1.40;99.90;;;;;;6071880;23;20257;-83
2021/12/11 08:23:43;;;;;;;;;;;;;;;;;;;;;
2021/12/11 08:26:15;;;;;;;;;;;1.50;99.90;;;;;;6070406;23;20226;-82
2021/12/11 08:32:25;;;;;;;;;;;1.30;99.90;;;;;;6051302;23;19921;-88
2021/12/11 08:35:30;;;;;;;;;;;1.10;99.90;;;;;;6058879;23;19928;-88
2021/12/11 08:38:15;;;;;;;;;;;1.00;99.90;;;;;;6049898;23;19917;-82
2021/12/11 08:41:04;;;;;;;;;;;1.00;99.90;;;;;;6084080;23;19921;-81
2021/12/11 08:44:08;;;;;;;;;;;;;;;;;;;;;
2021/12/11 08:47:42;;;;;;;;;;;1.10;99.90;;;;;;6069319;23;19924;-87
2021/12/11 08:50:16;;;;;;;;;;;1.00;99.90;;;;;;6064906;23;19924;-84
2021/12/11 08:52:59;;;;;;;;;;;1.00;99.90;;;;;;6014270;23;20246;-86
2021/12/11 08:55:36;;;;;;;;;;;1.00;99.90;;;;;;6066721;23;19921;-84
2021/12/11 08:58:16;;;;;;;;;;;1.10;99.90;;;;;;6062052;23;19928;-83
2021/12/11 09:00:44;;;;;;;;;;;1.10;99.90;;;;;;6073604;23;19922;-83
2021/12/11 09:03:56;;;;;;;;;;;1.00;99.90;;;;;;6040848;23;19921;-90
2021/12/11 09:06:46;;;;;;;;;;;1.00;99.90;;;;;;6070776;23;19921;-83
2021/12/11 09:09:33;;;;;;;;;;;1.00;99.90;;;;;;6038698;23;19928;-84
2021/12/11 09:12:07;;;;;;;;;;;0.90;99.90;;;;;;6063521;23;20261;-81
2021/12/11 09:14:35;;;;;;;;;;;1.00;99.90;;;;;;6066033;23;19921;-81
2021/12/11 09:17:06;;;;;;;;;;;1.00;99.90;;;;;;6073489;23;19944;-86
2021/12/11 09:19:38;;;;;;;;;;;1.00;99.90;;;;;;6059001;23;19917;-85
2021/12/11 09:22:23;;;;;;;;;;;1.00;99.90;;;;;;6098256;23;19923;-87
2021/12/11 09:25:08;;;;;;;;;;;1.10;99.90;;;;;;6099676;23;19917;-89
2021/12/11 09:27:38;;;;;;;;;;;1.00;99.90;;;;;;6127021;23;19920;-83
2021/12/11 09:30:12;;;;;;;;;;;0.90;99.90;;;;;;6072877;23;19927;-85
2021/12/11 09:32:54;;;;;;;;;;;0.90;99.90;;;;;;6125108;23;19924;-83
2021/12/11 09:35:28;;;;;;;;;;;0.90;99.90;;;;;;6089071;23;19927;-84
2021/12/11 09:37:59;;;;;;;;;;;1.00;99.90;;;;;;6134266;23;19924;-82
2021/12/11 09:40:37;;;;;;;;;;;1.00;99.90;;;;;;6123277;23;19917;-83
2021/12/11 09:43:09;;;;;;;;;;;1.00;99.90;;;;;;6128349;23;19942;-83
2021/12/11 09:45:47;;;;;;;;;;;1.00;99.90;;;;;;6108687;23;19924;-83
2021/12/11 09:48:19;;;;;;;;;;;1.00;99.90;;;;;;6124553;23;19920;-83
2021/12/11 09:50:55;;;;;;;;;;;1.00;99.90;;;;;;6073716;23;20393;-83
2021/12/11 09:53:50;;;;;;;;;;;1.00;99.90;;;;;;6078098;23;19917;-87
2021/12/11 09:56:49;;;;;;;;;;;1.00;99.90;;;;;;6036757;23;19917;-88
2021/12/11 09:59:32;;;;;;;;;;;1.00;99.90;;;;;;6052187;23;20325;-85
2021/12/11 10:02:07;;;;;;;;;;;1.00;99.90;;;;;;6127494;23;19925;-86
2021/12/11 10:04:59;;;;;;;;;;;0.90;99.90;;;;;;6099984;23;19921;-86
2021/12/11 10:07:35;;;;;;;;;;;0.90;99.90;;;;;;6099123;23;19927;-79
2021/12/11 10:10:17;;;;;;;;;;;1.00;99.90;;;;;;6095878;23;19924;-85
2021/12/11 10:12:50;;;;;;;;;;;1.00;99.90;;;;;;6133905;23;20322;-84
2021/12/11 10:15:28;;;;;;;;;;;1.00;99.90;;;;;;6123764;23;19917;-87
2021/12/11 10:22:10;;;;;;;;;;;1.10;99.90;;;;;;6111607;23;19924;-86
2021/12/11 10:24:41;;;;;;;;;;;1.00;99.90;;;;;;6110095;23;20244;-84
2021/12/11 10:27:14;;;;;;;;;;;1.00;99.90;;;;;;6128440;23;19917;-88
2021/12/11 10:29:50;;;;;;;;;;;1.00;99.90;;;;;;6098861;23;20344;-89
2021/12/11 10:32:24;;;;;;;;;;;0.90;99.90;;;;;;6123168;23;20226;-83
2021/12/11 10:34:55;;;;;;;;;;;1.00;99.90;;;;;;6124054;23;19921;-84
2021/12/11 10:37:28;;;;;;;;;;;1.00;99.90;;;;;;6133732;23;19917;-87
2021/12/11 10:39:58;;;;;;;;;;;1.00;99.90;;;;;;6061887;23;20260;-86
2021/12/11 10:42:25;;;;;;;;;;;1.00;99.90;;;;;;6072820;23;19926;-85
2021/12/11 10:44:56;;;;;;;;;;;1.00;99.90;;;;;;6073875;23;19969;-82
2021/12/11 10:47:28;;;;;;;;;;;0.90;99.90;;;;;;6127063;23;19924;-81
2021/12/11 10:50:21;;;;;;;;;;;1.00;99.90;;;;;;6130917;23;19921;-83
2021/12/11 10:52:48;;;;;;;;;;;1.00;99.90;;;;;;6129636;23;19921;-82
2021/12/11 10:55:17;;;;;;;;;;;1.00;99.90;;;;;;6126843;23;19920;-82
2021/12/11 10:57:46;;;;;;;;;;;0.90;99.90;;;;;;6123800;23;20351;-82
2021/12/11 11:00:17;;;;;;;;;;;1.00;99.90;;;;;;6123922;23;19921;-81
2021/12/11 11:02:45;;;;;;;;;;;1.00;99.90;;;;;;6130490;23;19944;-82
2021/12/11 11:05:16;;;;;;;;;;;1.00;99.90;;;;;;6125061;23;20343;-84
2021/12/11 11:07:46;;;;;;;;;;;1.00;99.90;;;;;;6101629;23;19917;-83
2021/12/11 11:10:16;;;;;;;;;;;1.00;99.90;;;;;;6107440;23;19924;-82
2021/12/11 11:12:45;;;;;;;;;;;1.00;99.90;;;;;;6133904;23;19924;-83
2021/12/11 11:15:29;;;;;;;;;;;1.00;99.90;;;;;;6098989;23;19924;-88
2021/12/11 11:18:08;;;;;;;;;;;1.00;99.90;;;;;;6086720;23;19916;-84
2021/12/11 11:20:39;;;;;;;;;;;1.00;99.90;;;;;;6134494;23;19924;-86
2021/12/11 11:44:56;;;;;;;;;;;1.00;99.90;;;;;;6121253;23;19928;-90
2021/12/11 11:48:52;;;;;;;;;;;0.90;99.90;;;;;;5970207;23;19919;-90
2021/12/11 11:52:34;;;;;;;;;;;0.90;99.90;;;;;;5961720;24;19918;-87
2021/12/11 11:56:24;;;;;;;;;;;0.80;99.90;;;;;;5914984;23;19919;-85
2021/12/11 11:59:34;;;;;;;;;;;0.80;99.90;;;;;;5895349;24;19926;-86
2021/12/11 12:10:37;;;;;;;;;;;0.90;99.90;;;;;;5906518;24;19935;-85
2021/12/11 12:13:07;;;;;;;;;;;0.90;99.90;;;;;;5971375;23;19919;-82
2021/12/11 12:16:00;;;;;;;;;;;0.90;99.90;;;;;;5998525;23;19929;-89
2021/12/11 12:18:27;;;;;;;;;;;0.90;99.90;;;;;;6012929;23;19925;-86
2021/12/11 12:21:16;;;;;;;;;;;0.90;99.90;;;;;;6009681;23;20327;-88
2021/12/11 12:23:46;;;;;;;;;;;1.00;99.90;;;;;;6008249;23;19922;-85
2021/12/11 12:26:17;;;;;;;;;;;0.90;99.90;;;;;;6009694;23;19918;-86
2021/12/11 12:28:45;;;;;;;;;;;1.00;99.90;;;;;;5960644;23;20255;-86
2021/12/11 12:31:16;;;;;;;;;;;1.10;99.90;;;;;;6055857;23;19921;-88
2021/12/11 12:33:44;;;;;;;;;;;1.20;99.90;;;;;;6135800;23;19931;-87
2021/12/11 12:36:13;;;;;;;;;;;1.20;99.90;;;;;;6125785;23;19939;-86
2021/12/11 12:38:42;;;;;;;;;;;1.20;99.90;;;;;;6131796;23;19921;-88
2021/12/11 12:41:12;;;;;;;;;;;1.20;99.90;;;;;;6110790;23;19917;-89
2021/12/11 12:44:06;;;;;;;;;;;1.30;99.90;;;;;;6075521;23;20329;-90
2021/12/11 12:47:00;;;;;;;;;;;1.30;99.90;;;;;;6056345;23;19928;-90
2021/12/11 12:49:30;;;;;;;;;;;1.20;99.90;;;;;;6135597;23;19917;-89
2021/12/11 12:52:06;;;;;;;;;;;1.20;99.90;;;;;;6126646;23;20236;-87
2021/12/11 12:54:34;;;;;;;;;;;1.20;99.90;;;;;;6132315;23;20244;-86
2021/12/11 12:57:23;;;;;;;;;;;1.10;99.90;;;;;;6108886;23;19924;-86
2021/12/11 13:00:03;;;;;;;;;;;1.10;99.90;;;;;;6101051;23;19932;-86
2021/12/11 13:02:31;;;;;;;;;;;1.10;99.90;;;;;;6131759;23;19928;-85
2021/12/11 13:05:21;;;;;;;;;;;1.10;99.90;;;;;;6109165;23;19917;-86
2021/12/11 13:07:54;;;;;;;;;;;1.10;99.90;;;;;;6075428;23;19927;-86
2021/12/11 13:10:24;;;;;;;;;;;1.00;99.90;;;;;;6107364;23;19916;-86
2021/12/11 13:12:53;;;;;;;;;;;1.00;99.90;;;;;;6134708;23;20339;-86
2021/12/11 13:15:23;;;;;;;;;;;1.00;99.90;;;;;;6045947;23;19921;-85
2021/12/11 13:17:55;;;;;;;;;;;1.00;99.90;;;;;;6105582;23;19917;-87
2021/12/11 13:20:33;;;;;;;;;;;1.00;99.90;;;;;;6045120;23;19921;-86
2021/12/11 13:23:02;;;;;;;;;;;1.00;99.90;;;;;;6075066;23;20483;-86
2021/12/11 13:25:33;;;;;;;;;;;1.00;99.90;;;;;;6105879;23;20340;-87
2021/12/11 13:28:02;;;;;;;;;;;1.10;99.90;;;;;;6070850;23;19917;-83
2021/12/11 13:30:33;;;;;;;;;;;1.00;99.90;;;;;;6102587;23;19928;-83
2021/12/11 13:33:05;;;;;;;;;;;1.00;99.90;;;;;;6105973;23;19917;-83
2021/12/11 13:35:37;;;;;;;;;;;1.00;99.90;;;;;;6098688;23;20243;-83
2021/12/11 13:38:08;;;;;;;;;;;1.00;99.90;;;;;;6104197;23;19917;-82
2021/12/11 13:40:37;;;;;;;;;;;1.00;99.90;;;;;;6046632;23;20241;-83
2021/12/11 13:43:05;;;;;;;;;;;1.00;99.90;;;;;;6098847;23;20341;-83
2021/12/11 13:45:35;;;;;;;;;;;1.00;99.90;;;;;;6077688;23;19917;-83
2021/12/11 13:48:04;;;;;;;;;;;1.10;99.90;;;;;;6094947;23;19932;-83
2021/12/11 13:50:35;;;;;;;;;;;1.10;99.90;;;;;;6100485;23;20309;-83
2021/12/11 13:53:04;;;;;;;;;;;1.00;99.90;;;;;;6044130;23;20226;-83
2021/12/11 13:55:32;;;;;;;;;;;1.10;99.90;;;;;;6070620;23;19917;-83
2021/12/11 13:58:01;;;;;;;;;;;1.00;99.90;;;;;;6101325;23;19932;-83
2021/12/11 14:00:31;;;;;;;;;;;1.00;99.90;;;;;;6102848;23;19948;-84
2021/12/11 14:03:11;;;;;;;;;;;1.00;99.90;;;;;;6071478;23;19932;-84
2021/12/11 14:05:40;;;;;;;;;;;1.00;99.90;;;;;;6102785;23;19960;-84
2021/12/11 14:08:12;;;;;;;;;;;1.00;99.90;;;;;;6093582;23;19936;-84
2021/12/11 14:10:41;;;;;;;;;;;1.00;99.90;;;;;;6101551;23;19956;-83
2021/12/11 14:13:10;;;;;;;;;;;1.00;99.90;;;;;;6071786;23;19928;-85
2021/12/11 14:15:40;;;;;;;;;;;1.00;99.90;;;;;;6074431;23;19917;-84
2021/12/11 14:18:08;;;;;;;;;;;1.00;99.90;;;;;;6107836;23;19917;-83
2021/12/11 14:20:36;;;;;;;;;;;1.00;99.90;;;;;;6134618;23;19917;-83
2021/12/11 14:23:06;;;;;;;;;;;1.00;99.90;;;;;;6128004;23;19917;-84
2021/12/11 14:25:34;;;;;;;;;;;1.00;99.90;;;;;;6134653;23;19924;-84
2021/12/11 14:28:05;;;;;;;;;;;0.90;99.90;;;;;;6097590;23;19917;-84
2021/12/11 14:30:34;;;;;;;;;;;1.00;99.90;;;;;;6074028;23;19917;-83
2021/12/11 14:33:02;;;;;;;;;;;1.00;99.90;;;;;;6134501;23;20540;-84
2021/12/11 14:35:32;;;;;;;;;;;1.00;99.90;;;;;;6077599;23;19925;-84
2021/12/11 14:38:06;;;;;;;;;;;1.00;99.90;;;;;;6123452;23;19921;-84
2021/12/11 14:40:35;;;;;;;;;;;1.00;99.90;;;;;;6098645;23;19917;-84
2021/12/11 14:43:03;;;;;;;;;;;1.00;99.90;;;;;;6128619;23;20252;-84
2021/12/11 14:45:32;;;;;;;;;;;1.00;99.90;;;;;;6134148;23;19924;-82
2021/12/11 14:47:59;;;;;;;;;;;1.00;99.90;;;;;;6099535;23;19931;-84
2021/12/11 14:50:38;;;;;;;;;;;1.00;99.90;;;;;;6122571;23;19923;-84
2021/12/11 14:53:08;;;;;;;;;;;0.90;99.90;;;;;;6133794;23;19917;-82
2021/12/11 14:55:41;;;;;;;;;;;0.90;99.90;;;;;;6127038;23;19921;-83
2021/12/11 14:58:17;;;;;;;;;;;1.00;99.90;;;;;;6105913;23;19925;-84
2021/12/11 15:00:52;;;;;;;;;;;1.00;99.90;;;;;;6074516;23;19926;-85
2021/12/11 15:03:21;;;;;;;;;;;0.90;99.90;;;;;;6128719;23;20229;-84
2021/12/11 15:05:49;;;;;;;;;;;0.90;99.90;;;;;;6074677;23;19917;-83
2021/12/11 15:08:22;;;;;;;;;;;0.90;99.90;;;;;;6097202;23;19920;-83
2021/12/11 15:10:51;;;;;;;;;;;0.90;99.90;;;;;;6097933;23;19928;-80
2021/12/11 15:13:23;;;;;;;;;;;0.90;99.90;;;;;;6049861;23;19921;-81
2021/12/11 15:15:51;;;;;;;;;;;0.80;99.90;;;;;;6125827;23;19931;-83
2021/12/11 15:18:22;;;;;;;;;;;0.90;99.90;;;;;;6131840;23;19928;-84
2021/12/11 15:20:54;;;;;;;;;;;0.90;99.90;;;;;;6097381;23;19933;-83
2021/12/11 15:23:22;;;;;;;;;;;0.80;99.90;;;;;;6101156;23;19917;-83
2021/12/11 15:25:50;;;;;;;;;;;0.80;99.90;;;;;;6133890;23;20252;-82
2021/12/11 15:28:18;;;;;;;;;;;0.80;99.90;;;;;;6123254;23;20240;-84
2021/12/11 15:30:48;;;;;;;;;;;0.80;99.90;;;;;;6129430;23;19920;-85
2021/12/11 15:33:43;;;;;;;;;;;0.80;99.90;;;;;;6133440;23;20376;-85
2021/12/11 15:36:12;;;;;;;;;;;0.80;99.90;;;;;;6074028;23;19921;-85
2021/12/11 15:38:41;;;;;;;;;;;0.70;99.90;;;;;;6104280;23;19921;-86
2021/12/11 15:41:15;;;;;;;;;;;0.70;99.90;;;;;;6075406;23;19927;-85
2021/12/11 15:43:46;;;;;;;;;;;0.70;99.90;;;;;;6072024;23;20251;-86
2021/12/11 15:46:32;;;;;;;;;;;0.70;99.90;;;;;;6075717;23;19917;-86
2021/12/11 15:49:01;;;;;;;;;;;0.70;99.90;;;;;;6097802;23;20210;-86
2021/12/11 15:51:39;;;;;;;;;;;0.70;99.90;;;;;;6097087;23;19924;-84
2021/12/11 15:54:09;;;;;;;;;;;0.60;99.90;;;;;;6129385;23;20341;-82
2021/12/11 15:56:39;;;;;;;;;;;0.70;99.90;;;;;;6133117;23;19944;-83
2021/12/11 15:59:07;;;;;;;;;;;0.70;99.90;;;;;;6127301;23;19917;-81
2021/12/11 16:01:35;;;;;;;;;;;0.70;99.90;;;;;;6107353;23;19920;-81
2021/12/11 16:04:06;;;;;;;;;;;0.60;99.90;;;;;;6074848;23;19924;-81
2021/12/11 16:06:37;;;;;;;;;;;0.70;99.90;;;;;;6106309;23;19924;-81
2021/12/11 16:09:09;;;;;;;;;;;0.70;99.90;;;;;;6134801;23;19924;-79
2021/12/11 16:11:43;;;;;;;;;;;0.60;99.90;;;;;;6101707;23;19923;-78
2021/12/11 16:14:12;;;;;;;;;;;0.60;99.90;;;;;;6128759;23;20313;-80